createdAt,value
2023-03-17T00:01:47.923Z,5.95
2023-03-17T00:04:49.676Z,3.88
2023-03-17T00:07:52.384Z,2.37
2023-03-17T00:13:55.469Z,1.15
2023-03-17T00:16:57.026Z,1.38
2023-03-17T00:19:58.580Z,1.75
2023-03-17T00:23:00.329Z,8.13
2023-03-17T00:26:02.516Z,1.23
2023-03-17T00:29:05.992Z,2.22
2023-03-17T00:32:15.828Z,4.50
2023-03-17T00:35:19.268Z,2.55
2023-03-17T00:38:21.474Z,2.40
2023-03-17T00:41:23.584Z,2.83
2023-03-17T00:44:25.515Z,4.85
2023-03-17T00:47:27.011Z,1.90
2023-03-17T00:50:28.889Z,2.13
2023-03-17T00:53:30.776Z,4.28
2023-03-17T00:56:32.278Z,1.37
2023-03-17T00:59:39.154Z,3.28
2023-03-17T01:02:41.143Z,3.50
2023-03-17T01:05:42.635Z,4.95
2023-03-17T01:08:45.386Z,5.38
2023-03-17T01:11:46.974Z,2.90
2023-03-17T01:14:48.462Z,1.88
2023-03-17T01:17:50.576Z,3.20
2023-03-17T01:20:53.062Z,4.65
2023-03-17T01:23:55.064Z,4.07
2023-03-17T01:26:56.502Z,7.43
2023-03-17T01:29:57.961Z,6.75
2023-03-17T01:32:59.905Z,5.78
2023-03-17T01:36:01.473Z,6.88
2023-03-17T01:39:05.255Z,3.70
2023-03-17T01:42:07.231Z,2.28
2023-03-17T01:45:47.125Z,1.00
2023-03-17T01:49:07.125Z,3.70
2023-03-17T01:52:16.104Z,7.45
2023-03-17T01:55:17.740Z,4.88
2023-03-17T01:58:19.688Z,2.22
2023-03-17T02:01:24.115Z,3.05
2023-03-17T02:04:26.824Z,2.00
2023-03-17T02:10:30.016Z,8.25
2023-03-17T02:13:31.903Z,1.25
2023-03-17T02:16:33.366Z,5.28
2023-03-17T02:19:35.250Z,5.50
2023-03-17T02:22:37.345Z,2.08
2023-03-17T02:25:39.875Z,3.80
2023-03-17T02:28:41.328Z,10.90
2023-03-17T02:31:43.941Z,3.17
2023-03-17T02:34:48.605Z,1.77
2023-03-17T02:37:50.064Z,2.05
2023-03-17T02:40:51.890Z,2.47
2023-03-17T02:43:53.737Z,4.80
2023-03-17T02:46:55.202Z,8.73
2023-03-17T02:49:56.713Z,3.78
2023-03-17T02:52:58.452Z,1.00
2023-03-17T02:55:59.981Z,4.57
2023-03-17T02:59:01.449Z,4.20
2023-03-17T03:02:02.960Z,4.28
2023-03-17T03:05:05.530Z,5.75
2023-03-17T03:08:07.118Z,5.80
2023-03-17T03:11:08.627Z,3.72
2023-03-17T03:14:10.323Z,7.65
2023-03-17T03:17:11.858Z,1.48
2023-03-17T03:20:14.485Z,2.03
2023-03-17T03:26:17.818Z,39.92
2023-03-17T03:29:19.330Z,147.00
2023-03-17T03:32:20.805Z,204.55
2023-03-17T03:35:22.305Z,117.43
2023-03-17T03:38:23.799Z,68.30
2023-03-17T03:41:25.474Z,285.77
2023-03-17T03:44:26.988Z,134.50
2023-03-17T03:47:28.458Z,314.25
2023-03-17T03:50:30.171Z,148.95
2023-03-17T03:53:31.876Z,109.20
2023-03-17T03:56:33.330Z,24.52
2023-03-17T03:59:34.798Z,11.65
2023-03-17T04:02:36.306Z,5.18
2023-03-17T04:05:37.770Z,4.15
2023-03-17T04:08:39.262Z,3.30
2023-03-17T04:11:40.779Z,6.70
2023-03-17T04:14:42.557Z,6.78
2023-03-17T04:17:44.132Z,81.17
2023-03-17T04:20:46.089Z,175.60
2023-03-17T04:23:50.021Z,165.18
2023-03-17T04:26:51.977Z,64.75
2023-03-17T04:29:53.754Z,141.90
2023-03-17T04:32:55.238Z,66.50
2023-03-17T04:35:56.965Z,36.28
2023-03-17T04:38:58.496Z,26.07
2023-03-17T04:41:59.944Z,64.82
2023-03-17T04:45:01.409Z,14.65
2023-03-17T04:48:02.905Z,33.45
2023-03-17T04:51:04.610Z,20.67
2023-03-17T04:54:06.709Z,8.82
2023-03-17T04:57:08.931Z,2.92
2023-03-17T05:00:12.543Z,2.88
2023-03-17T05:03:26.034Z,5.65
2023-03-17T05:06:28.464Z,4.10
2023-03-17T05:09:29.962Z,0.90
2023-03-17T05:12:31.551Z,3.90
2023-03-17T05:15:33.023Z,5.97
2023-03-17T05:18:34.541Z,9.60
2023-03-17T05:21:35.973Z,10.73
2023-03-17T05:24:37.488Z,1.75
2023-03-17T05:27:39.426Z,1.85
2023-03-17T05:30:41.456Z,4.55
2023-03-17T05:33:43.479Z,8.63
2023-03-17T05:36:44.944Z,5.22
2023-03-17T05:39:46.407Z,4.55
2023-03-17T05:42:47.859Z,4.35
2023-03-17T05:45:50.605Z,4.18
2023-03-17T05:48:52.372Z,3.45
2023-03-17T05:51:55.127Z,3.42
2023-03-17T05:57:58.284Z,4.93
2023-03-17T06:00:59.928Z,4.88
2023-03-17T06:04:01.743Z,4.50
2023-03-17T06:07:03.463Z,3.80
2023-03-17T06:10:05.209Z,5.68
2023-03-17T06:13:06.698Z,11.30
2023-03-17T06:16:08.468Z,7.47
2023-03-17T06:19:10.185Z,6.17
2023-03-17T06:22:11.988Z,6.22
2023-03-17T06:25:14.125Z,2.30
2023-03-17T06:28:15.593Z,2.88
2023-03-17T06:31:17.846Z,5.32
2023-03-17T06:34:19.771Z,3.17
2023-03-17T06:37:21.427Z,2.80
2023-03-17T06:40:22.901Z,3.88
2023-03-17T06:43:25.039Z,9.52
2023-03-17T06:46:27.097Z,8.27
2023-03-17T06:49:28.694Z,7.93
2023-03-17T06:52:30.178Z,9.38
2023-03-17T06:55:32.010Z,5.43
2023-03-17T06:58:33.738Z,8.38
2023-03-17T07:01:35.251Z,8.10
2023-03-17T07:04:38.002Z,11.10
2023-03-17T07:07:40.070Z,18.60
2023-03-17T07:10:43.198Z,10.63
2023-03-17T07:13:45.283Z,12.77
2023-03-17T07:16:48.404Z,10.45
2023-03-17T07:19:50.043Z,12.63
2023-03-17T07:22:51.613Z,73.47
2023-03-17T07:25:53.105Z,59.72
2023-03-17T07:28:54.644Z,23.52
2023-03-17T07:31:56.149Z,15.52
2023-03-17T07:34:58.263Z,10.95
2023-03-17T07:38:00.013Z,14.07
2023-03-17T07:41:01.587Z,9.77
2023-03-17T07:44:04.118Z,18.25
2023-03-17T07:47:05.847Z,14.20
2023-03-17T07:50:07.684Z,23.17
2023-03-17T07:53:09.219Z,25.80
2023-03-17T07:56:10.980Z,19.08
2023-03-17T07:59:12.431Z,14.17
2023-03-17T08:02:15.834Z,11.50
2023-03-17T08:05:17.488Z,15.63
2023-03-17T08:08:21.350Z,13.25
2023-03-17T08:11:23.383Z,8.43
2023-03-17T08:14:24.974Z,6.30
2023-03-17T08:17:27.449Z,4.83
2023-03-17T08:20:29.956Z,4.13
2023-03-17T08:23:32.320Z,5.40
2023-03-17T08:29:35.937Z,4.32
2023-03-17T08:32:37.995Z,3.15
2023-03-17T08:35:41.554Z,2.97
2023-03-17T08:38:43.559Z,3.08
2023-03-17T08:41:45.034Z,4.07
2023-03-17T08:44:46.560Z,1.20
2023-03-17T08:47:48.237Z,1.47
2023-03-17T08:50:49.701Z,5.60
2023-03-17T08:53:51.661Z,26.30
2023-03-17T08:56:53.313Z,21.05
2023-03-17T08:59:54.797Z,11.25
2023-03-17T09:02:58.287Z,7.22
2023-03-17T09:05:59.889Z,10.05
2023-03-17T09:09:01.421Z,7.82
2023-03-17T09:12:05.229Z,5.40
2023-03-17T09:15:07.696Z,7.53
2023-03-17T09:18:09.318Z,11.23
2023-03-17T09:21:13.876Z,8.77
2023-03-17T09:24:15.375Z,3.42
2023-03-17T09:27:16.862Z,10.65
2023-03-17T09:30:18.647Z,5.05
2023-03-17T09:33:20.175Z,2.22
2023-03-17T09:36:21.667Z,2.15
2023-03-17T09:39:24.109Z,6.75
2023-03-17T09:42:56.521Z,3.15
2023-03-17T09:45:57.973Z,4.13
2023-03-17T09:49:01.572Z,2.53
2023-03-17T09:52:03.529Z,2.50
2023-03-17T09:58:08.935Z,2.05
2023-03-17T10:01:10.461Z,3.03
2023-03-17T10:04:12.041Z,3.25
2023-03-17T10:07:13.717Z,3.65
2023-03-17T10:10:29.132Z,2.75
2023-03-17T10:13:59.559Z,2.00
2023-03-17T10:17:05.703Z,5.25
2023-03-17T10:20:15.746Z,4.38
2023-03-17T10:23:19.341Z,4.55
2023-03-17T10:26:31.101Z,3.22
2023-03-17T10:29:32.685Z,2.67
2023-03-17T10:32:36.162Z,3.63
2023-03-17T10:35:39.396Z,3.08
2023-03-17T10:38:41.052Z,4.20
2023-03-17T10:42:07.072Z,11.05
2023-03-17T10:45:16.961Z,5.57
2023-03-17T10:48:19.206Z,4.65
2023-03-17T10:51:40.528Z,7.13
2023-03-17T10:54:42.022Z,5.70
2023-03-17T10:58:04.058Z,4.20
2023-03-17T11:01:20.209Z,6.00
2023-03-17T11:04:42.520Z,4.10
2023-03-17T11:07:45.253Z,4.25
2023-03-17T11:10:46.831Z,2.83
2023-03-17T11:13:48.808Z,3.65
2023-03-17T11:16:59.002Z,3.42
2023-03-17T11:20:11.558Z,2.22
2023-03-17T11:23:38.680Z,3.50
2023-03-17T11:26:46.101Z,4.47
2023-03-17T11:30:14.857Z,3.47
2023-03-17T11:33:59.984Z,3.80
2023-03-17T11:37:20.028Z,4.35
2023-03-17T11:40:32.109Z,4.18
2023-03-17T11:44:05.672Z,3.45
2023-03-17T11:47:10.042Z,4.95
2023-03-17T11:50:23.366Z,5.38
2023-03-17T11:53:54.698Z,4.20
2023-03-17T11:56:56.693Z,3.30
2023-03-17T12:00:21.440Z,4.28
2023-03-17T12:03:32.948Z,3.33
2023-03-17T12:06:36.372Z,3.45
2023-03-17T12:09:46.342Z,3.05
2023-03-17T12:12:51.719Z,2.50
2023-03-17T12:16:05.431Z,3.08
2023-03-17T12:19:25.080Z,2.85
2023-03-17T12:22:32.785Z,4.63
2023-03-17T12:25:37.474Z,3.28
2023-03-17T12:28:44.303Z,4.22
2023-03-17T12:31:48.856Z,5.60
2023-03-17T12:35:03.201Z,2.88
2023-03-17T12:38:13.489Z,7.68
2023-03-17T12:41:39.011Z,122.75
2023-03-17T12:45:22.287Z,2.85
2023-03-17T12:48:38.596Z,11.48
2023-03-17T12:51:48.426Z,4.82
2023-03-17T12:54:51.562Z,3.90
2023-03-17T12:58:02.086Z,3.17
2023-03-17T13:01:23.066Z,5.47
2023-03-17T13:04:27.257Z,3.30
2023-03-17T13:07:46.779Z,8.27
2023-03-17T13:10:48.692Z,5.90
2023-03-17T13:14:15.318Z,4.65
2023-03-17T13:17:16.905Z,6.82
2023-03-17T13:20:19.584Z,2.55
2023-03-17T13:23:21.972Z,3.95
2023-03-17T13:26:59.358Z,8.13
2023-03-17T13:30:25.767Z,6.70
2023-03-17T13:33:30.673Z,5.80
2023-03-17T13:36:53.683Z,3.40
2023-03-17T13:40:11.272Z,6.20
2023-03-17T13:43:31.747Z,2.33
2023-03-17T13:46:34.299Z,7.57
2023-03-17T13:49:36.702Z,5.10
2023-03-17T13:52:41.387Z,3.63
2023-03-17T13:55:43.456Z,2.70
2023-03-17T13:59:11.733Z,2.00
2023-03-17T14:02:17.837Z,2.20
2023-03-17T14:05:27.539Z,2.13
2023-03-17T14:08:31.772Z,4.43
2023-03-17T14:11:35.850Z,2.55
2023-03-17T14:14:49.150Z,4.47
2023-03-17T14:17:59.361Z,1.90
2023-03-17T14:21:02.786Z,5.53
2023-03-17T14:24:21.850Z,4.78
2023-03-17T14:27:24.149Z,3.92
2023-03-17T14:30:28.805Z,3.63
2023-03-17T14:33:38.000Z,4.45
2023-03-17T14:36:39.616Z,2.47
2023-03-17T14:42:46.652Z,2.13
2023-03-17T14:45:59.608Z,5.18
2023-03-17T14:49:03.068Z,4.65
2023-03-17T14:52:04.671Z,3.95
2023-03-17T14:58:10.175Z,4.88
2023-03-17T15:01:39.676Z,3.35
2023-03-17T15:04:53.517Z,4.30
2023-03-17T15:07:55.428Z,3.28
2023-03-17T15:11:00.537Z,2.75
2023-03-17T15:14:27.850Z,3.72
2023-03-17T15:17:33.118Z,3.25
2023-03-17T15:20:35.463Z,5.88
2023-03-17T15:23:39.780Z,2.22
2023-03-17T15:26:42.256Z,2.83
2023-03-17T15:29:44.552Z,5.05
2023-03-17T15:32:51.787Z,3.55
2023-03-17T15:35:53.527Z,4.38
2023-03-17T15:41:56.881Z,2.03
2023-03-17T15:45:01.166Z,3.67
2023-03-17T15:48:02.845Z,5.38
2023-03-17T15:51:05.065Z,3.15
2023-03-17T15:54:06.900Z,5.03
2023-03-17T16:00:17.301Z,4.20
2023-03-17T16:03:24.863Z,6.10
2023-03-17T16:06:26.636Z,3.70
2023-03-17T16:12:29.765Z,12.00
2023-03-17T16:15:32.592Z,40.50
2023-03-17T16:18:36.125Z,7.13
2023-03-17T16:21:37.806Z,4.85
2023-03-17T16:24:39.466Z,9.30
2023-03-17T16:27:40.924Z,6.18
2023-03-17T16:30:43.045Z,6.85
2023-03-17T16:33:44.684Z,6.65
2023-03-17T16:36:46.602Z,4.78
2023-03-17T16:42:53.855Z,5.07
2023-03-17T16:45:57.377Z,5.18
2023-03-17T16:48:58.956Z,8.48
2023-03-17T16:52:00.542Z,5.82
2023-03-17T16:55:02.514Z,2.78
2023-03-17T17:01:11.968Z,8.38
2023-03-17T17:04:13.601Z,9.57
2023-03-17T17:07:15.584Z,13.30
2023-03-17T17:13:19.420Z,11.82
2023-03-17T17:16:29.554Z,20.70
2023-03-17T17:19:31.141Z,6.32
2023-03-17T17:22:32.847Z,14.98
2023-03-17T17:25:34.472Z,6.35
2023-03-17T17:28:36.356Z,7.53
2023-03-17T17:31:38.079Z,11.05
2023-03-17T17:34:39.672Z,14.82
2023-03-17T17:37:41.426Z,16.98
2023-03-17T17:40:42.994Z,26.60
2023-03-17T17:43:46.447Z,10.63
2023-03-17T17:46:48.083Z,7.82
2023-03-17T17:49:49.796Z,4.80
2023-03-17T17:52:51.523Z,7.32
2023-03-17T17:55:53.136Z,10.65
2023-03-17T17:58:54.686Z,7.07
2023-03-17T18:01:56.331Z,16.42
2023-03-17T18:04:58.363Z,18.77
2023-03-17T18:11:01.633Z,23.42
2023-03-17T18:14:03.244Z,14.63
2023-03-17T18:17:04.930Z,11.48
2023-03-17T18:20:06.993Z,8.88
2023-03-17T18:23:08.537Z,5.40
2023-03-17T18:26:10.474Z,13.27
2023-03-17T18:29:12.387Z,7.30
2023-03-17T18:32:13.919Z,4.07
2023-03-17T18:35:17.433Z,4.50
2023-03-17T18:38:19.081Z,8.27
2023-03-17T18:41:20.739Z,4.97
2023-03-17T18:44:24.989Z,6.35
2023-03-17T18:47:26.868Z,9.40
2023-03-17T18:50:28.668Z,10.15
2023-03-17T18:53:30.938Z,12.23
2023-03-17T18:59:33.903Z,8.10
2023-03-17T19:02:35.740Z,11.02
2023-03-17T19:05:38.178Z,11.15
2023-03-17T19:08:39.814Z,8.45
2023-03-17T19:11:41.375Z,6.43
2023-03-17T19:14:42.945Z,9.15
2023-03-17T19:17:44.493Z,5.20
2023-03-17T19:20:46.242Z,5.57
2023-03-17T19:23:47.910Z,12.27
2023-03-17T19:26:49.460Z,5.95
2023-03-17T19:29:51.055Z,9.80
2023-03-17T19:32:52.638Z,13.95
2023-03-17T19:35:56.143Z,9.45
2023-03-17T19:38:57.804Z,9.23
2023-03-17T19:41:59.645Z,10.48
2023-03-17T19:45:01.245Z,11.43
2023-03-17T19:48:02.817Z,5.38
2023-03-17T19:51:04.530Z,8.80
2023-03-17T19:54:06.116Z,9.77
2023-03-17T19:57:07.648Z,6.63
2023-03-17T20:00:11.112Z,6.80
2023-03-17T20:03:14.344Z,7.13
2023-03-17T20:06:16.184Z,12.52
2023-03-17T20:09:18.112Z,10.57
2023-03-17T20:12:20.710Z,4.38
2023-03-17T20:15:22.351Z,10.57
2023-03-17T20:18:23.996Z,5.80
2023-03-17T20:21:25.834Z,7.22
2023-03-17T20:24:29.196Z,14.00
2023-03-17T20:27:32.118Z,11.30
2023-03-17T20:30:33.802Z,10.52
2023-03-17T20:33:35.362Z,23.83
2023-03-17T20:36:37.401Z,15.13
2023-03-17T20:39:39.028Z,17.02
2023-03-17T20:42:41.517Z,10.10
2023-03-17T20:45:43.156Z,11.77
2023-03-17T20:48:47.716Z,24.73
2023-03-17T20:51:49.232Z,13.85
2023-03-17T20:54:51.161Z,18.10
2023-03-17T20:57:52.805Z,16.55
2023-03-17T21:00:54.746Z,13.25
2023-03-17T21:03:56.492Z,10.20
2023-03-17T21:06:58.170Z,10.30
2023-03-17T21:10:02.411Z,11.95
2023-03-17T21:13:03.979Z,8.45
2023-03-17T21:16:05.948Z,10.55
2023-03-17T21:19:11.766Z,10.40
2023-03-17T21:22:13.342Z,11.07
2023-03-17T21:25:14.915Z,10.63
2023-03-17T21:28:16.630Z,15.37
2023-03-17T21:31:18.251Z,7.75
2023-03-17T21:34:20.225Z,4.57
2023-03-17T21:37:21.910Z,10.07
2023-03-17T21:40:26.016Z,7.67
2023-03-17T21:43:28.926Z,7.93
2023-03-17T21:46:31.627Z,9.88
2023-03-17T21:49:33.279Z,11.45
2023-03-17T21:52:34.755Z,14.18
2023-03-17T21:55:36.278Z,15.93
2023-03-17T21:58:37.792Z,10.20
2023-03-17T22:01:39.610Z,13.03
2023-03-17T22:04:41.647Z,14.73
2023-03-17T22:07:43.765Z,9.35
2023-03-17T22:10:45.316Z,8.15
2023-03-17T22:13:47.128Z,11.57
2023-03-17T22:16:49.120Z,7.53
2023-03-17T22:19:52.272Z,3.92
2023-03-17T22:22:53.768Z,6.47
2023-03-17T22:25:56.637Z,8.47
2023-03-17T22:28:58.522Z,12.20
2023-03-17T22:32:01.366Z,6.40
2023-03-17T22:35:02.896Z,8.73
2023-03-17T22:38:05.055Z,11.98
2023-03-17T22:41:08.400Z,5.45
2023-03-17T22:44:10.253Z,10.73
2023-03-17T22:47:11.942Z,6.47
2023-03-17T22:50:13.443Z,11.82
2023-03-17T22:53:14.944Z,7.18
2023-03-17T22:56:16.974Z,4.47
2023-03-17T22:59:18.471Z,5.20
2023-03-17T23:02:19.929Z,9.30
2023-03-17T23:05:21.420Z,5.78
2023-03-17T23:08:22.873Z,10.82
2023-03-17T23:11:25.423Z,6.43
2023-03-17T23:17:28.577Z,5.53
2023-03-17T23:20:30.522Z,10.40
2023-03-17T23:23:32.756Z,7.00
2023-03-17T23:26:36.033Z,8.15
2023-03-17T23:29:37.835Z,5.15
2023-03-17T23:32:40.533Z,9.32
2023-03-17T23:35:42.136Z,7.80
2023-03-17T23:38:44.060Z,5.73
2023-03-17T23:41:45.529Z,5.63
2023-03-17T23:44:47.092Z,4.35
2023-03-17T23:47:49.099Z,4.37
2023-03-17T23:50:52.307Z,7.40
2023-03-17T23:53:54.340Z,3.35
2023-03-17T23:56:56.072Z,6.85
2023-03-17T23:59:58.023Z,12.38
